Rechercher aéroport 
image banner adimage banner ad
image banner ad

FQTT - Tete / Chingozi / National

Situé à , Mozambique

ICAO - FQTT, IATA - TET

Données fournies par Airmate  

Information générale

Coordonnées: S16°6'29" E33°38'25"
Élévation : 525 feet MSL.
 
Voir autres Aéroports à Tete Province

Données opérationnelles

Accessible au public
Heure actuelle UTC:
Heure actuelle locale:
Météo
METAR: FQTT 211700Z 09005KT 9999 SCT020 FEW025CB SCT100 28/23 Q1010 RMK CB TO N/NE/NW/SE
TAF: TAF FQTT 211000Z 2112/2212 16010KT 9999 SCT020 FEW030CB TX35/2113Z TN24/2203Z PROB30 TEMPO 2115/2118 5000 TS FEW025CB BECMG 2118/2120 22010KT 9999 SCT020 BKN030 BECMG 2206/2208 12010G20KT
Voir NOTAMs / SUP AIP / TFR affectant cet aéroport [VIEW]
Fréquences de communication: [VIEW]

Pistes:

Identifiant RWYQFULongueur (ft)Largeur (ft)SurfaceLDA (ft)
01820298ASP
19820298

Coordonnées de l'aéroport

Adresse: Mozambique

Vue satellite de FQTT